KPNA Airport Information

Runway Information
Runway 11 Length 7100 ft width 100 ft
Elevation 7086 ft Threshold ft Heading 123
Runway 29 Length 7100 ft Width 100 ft
Elevation 7065 ft Threshold ft Heading 303
Airport Frequencies
Type AWOS Name AWOS 3 Frequency 118.325 MHZ
Type CNTR Name SALT LAKE Frequency 128.35 MHZ
Type UNIC Name CTAF/UNICO Frequency 122.8 MHZ
Airport Navaids
Airport Weather Information & NOTAM
ADDS - METARS form results

(0023 UTC 29 June 2022)
Data provider http://aviationweather.gov/metar/data/
 
METAR text: KPNA 290015Z AUTO 16005KT 10SM CLR 26/M01 A3029 RMK AO2
Conditions at: KPNA (PINEDALE R WENZ , WY, US) observed 0015 UTC 29 June 2022
Temperature: 26.0°C (79°F)
Dewpoint: -1.0°C (30°F) [RH = 17%]
Pressure (altimeter): 30.29 inches Hg (1025.8 mb)
Winds: from the SSE (160 degrees) at 6 MPH (5 knots; 2.6 m/s)
Visibility: 10 or more miles (16+ km)
Ceiling: at least 12,000 feet AGL
Clouds: sky clear below 12,000 feet AGL
Weather: automated observation with no human augmentation;
there may or may not be significant weather present at this time

METAR text: KPNA 282355Z AUTO 00000KT 10SM CLR 26/M01 A3030 RMK AO2
Conditions at: KPNA (PINEDALE R WENZ , WY, US) observed 2355 UTC 28 June 2022
Temperature: 26.0°C (79°F)
Dewpoint: -1.0°C (30°F) [RH = 17%]
Pressure (altimeter): 30.30 inches Hg (1026.2 mb)
Winds: calm
Visibility: 10 or more miles (16+ km)
Ceiling: at least 12,000 feet AGL
Clouds: sky clear below 12,000 feet AGL
Weather: automated observation with no human augmentation;
there may or may not be significant weather present at this time

METAR text: KPNA 282335Z AUTO 33003KT 10SM CLR 26/M01 A3031 RMK AO2
Conditions at: KPNA (PINEDALE R WENZ , WY, US) observed 2335 UTC 28 June 2022
Temperature: 26.0°C (79°F)
Dewpoint: -1.0°C (30°F) [RH = 17%]
Pressure (altimeter): 30.31 inches Hg (1026.5 mb)
Winds: from the NNW (330 degrees) at 3 MPH (3 knots; 1.5 m/s)
Visibility: 10 or more miles (16+ km)
Ceiling: at least 12,000 feet AGL
Clouds: sky clear below 12,000 feet AGL
Weather: automated observation with no human augmentation;
there may or may not be significant weather present at this time

Forecast for: KPNA (PINEDALE R WENZ , WY, US)
Text: KPNA 282323Z 2900/2924 30010G20KT P6SM VCSH SCT110 BKN140
Forecast period: 0000 to 0300 UTC 29 June 2022
Forecast type: FROM: standard forecast or significant change
Winds: from the WNW (300 degrees) at 12 MPH (10 knots; 5.1 m/s)
gusting to 23 MPH (20 knots; 10.3 m/s)
Visibility: 6 or more miles (10+ km)
Ceiling: 14000 feet AGL
Clouds: scattered clouds at 11000 feet AGL
broken clouds at 14000 feet AGL
Weather: VCSH  (showers in vicinity)
Text: FM290300 30006KT P6SM VCSH SCT110 BKN150
Forecast period: 0300 to 1700 UTC 29 June 2022
Forecast type: FROM: standard forecast or significant change
Winds: from the WNW (300 degrees) at 7 MPH (6 knots; 3.1 m/s)
Visibility: 6 or more miles (10+ km)
Ceiling: 15000 feet AGL
Clouds: scattered clouds at 11000 feet AGL
broken clouds at 15000 feet AGL
Weather: VCSH  (showers in vicinity)
Text: FM291700 27012G18KT P6SM BKN180
Forecast period: 1700 to 1900 UTC 29 June 2022
Forecast type: FROM: standard forecast or significant change
Winds: from the W (270 degrees) at 14 MPH (12 knots; 6.2 m/s)
gusting to 21 MPH (18 knots; 9.3 m/s)
Visibility: 6 or more miles (10+ km)
Ceiling: 18000 feet AGL
Clouds: broken clouds at 18000 feet AGL
Weather: no significant weather forecast for this period
Text: FM291900 28020G30KT P6SM SCT200
Forecast period: 1900 UTC 29 June 2022 to 0000 UTC 30 June 2022
Forecast type: FROM: standard forecast or significant change
Winds: from the W (280 degrees) at 23 MPH (20 knots; 10.3 m/s)
gusting to 34 MPH (30 knots; 15.4 m/s)
Visibility: 6 or more miles (10+ km)
Ceiling: at least 12,000 feet AGL
Clouds: scattered clouds at 20000 feet AGL
Weather: no significant weather forecast for this period